Garfield, Ohio
Current Conditions -  °F | °C
As of 6:53 PM on Wednesday 22 Oct 2014 (Local Time) from KBKL Reporting Station
Overcast Overcast  
Wind Chill: 12°   Ceiling: 3700
Heat Index: 12°   Visibility: 10mi
Dew Point:   Wind: 12mph
Humidity: 66%   Direction: 350°N
Pressure: 30.24"   Gusts: NA
Location:  41.4062°N, 81.6149°W
Report Text: KBKL 222253Z 35010KT 10SM OVC037 12/06 A3024 RMK AO2 SLP241 T01170056
Loading
Personal Weather Stations






























Interactive Weather Map
Tropical Storm Tracking
New forecast layout! Learn more

10-Day Weather Forecast

Advertisements
Track Severe Weather on mobile